Погода Коринфна 2 недели

Леон, Никарагуа

01 - 14 марта
  • 01марта
    Сегодня
    +23°
    +37°
    Ясно и безоблачно
    ВремяПогодаТемператураВлажностьДавлениеВетер, м/сВероятность осадков
    00:00Ясно и безоблачно+28°C57 %754 мм5.5 м/с2 %
    03:00Ясно и безоблачно+26°C65 %754 мм2.6 м/с3 %
    06:00Ясно и безоблачно+24°C73 %754 мм0.2 м/с2 %
    09:00Ясно и безоблачно+30°C49 %756 мм2.0 м/с2 %
    12:00Ясно и безоблачно+35°C33 %754 мм2.7 м/с2 %
    15:00Ясно и безоблачно+37°C32 %751 мм3.3 м/с2 %
    18:00Ясно и безоблачно+33°C39 %751 мм3.7 м/с2 %
    21:00Ясно и безоблачно+30°C54 %753 мм4.6 м/с2 %
  • 02марта
    Суббота
    +23°
    +37°
    Ясно и безоблачно
    ВремяПогодаТемператураВлажностьДавлениеВетер, м/сВероятность осадков
    00:00Ясно и безоблачно+29°C63 %754 мм3.9 м/с2 %
    03:00Ясно и безоблачно+25°C71 %753 мм1.8 м/с3 %
    06:00Ясно и безоблачно+23°C76 %755 мм0.1 м/с3 %
    09:00Ясно и безоблачно+30°C51 %756 мм1.9 м/с3 %
    12:00Практически безоблачно+35°C34 %754 мм2.6 м/с4 %
    15:00Ясно и безоблачно+36°C27 %751 мм3.4 м/с4 %
    18:00Ясно и безоблачно+29°C72 %752 мм3.5 м/с3 %
    21:00Ясно и безоблачно+28°C74 %754 мм1.3 м/с2 %
  • 03марта
    Воскресенье
    +22°
    +36°
    Практически безоблачно
    ВремяПогодаТемператураВлажностьДавлениеВетер, м/сВероятность осадков
    00:00Ясно и безоблачно+26°C59 %754 мм1.7 м/с2 %
    03:00Ясно и безоблачно+25°C63 %753 мм1.6 м/с6 %
    06:00Ясно и безоблачно+23°C71 %754 мм0.1 м/с3 %
    09:00Ясно и безоблачно+30°C47 %755 мм1.7 м/с2 %
    12:00Ясно и безоблачно+35°C27 %753 мм2.3 м/с2 %
    15:00Практически безоблачно+35°C33 %751 мм3.3 м/с2 %
    18:00Ясно и безоблачно+30°C68 %751 мм2.7 м/с2 %
    21:00Ясно и безоблачно+28°C75 %753 мм0.8 м/с2 %
  • 04марта
    Понедельник
    +23°
    +36°
    Ясно и безоблачно
    ВремяПогодаТемператураВлажностьДавлениеВетер, м/сВероятность осадков
    00:00Ясно и безоблачно+26°C80 %753 мм0.9 м/с2 %
    03:00Ясно и безоблачно+24°C82 %752 мм1.3 м/с2 %
    06:00Ясно и безоблачно+23°C80 %753 мм0.1 м/с2 %
    09:00Ясно и безоблачно+30°C51 %754 мм1.8 м/с2 %
    12:00Ясно и безоблачно+35°C36 %752 мм2.4 м/с2 %
    15:00Ясно и безоблачно+36°C29 %749 мм3.3 м/с2 %
    18:00Ясно и безоблачно+29°C69 %750 мм3.0 м/с2 %
    21:00Ясно и безоблачно+27°C81 %752 мм0.7 м/с2 %
  • 05марта
    Вторник
    +23°
    +37°
    Небольшая облачность
    ВремяПогодаТемператураВлажностьДавлениеВетер, м/сВероятность осадков
    00:00Ясно и безоблачно+26°C85 %752 мм1.3 м/с2 %
    03:00Ясно и безоблачно+24°C91 %751 мм0.6 м/с5 %
    06:00Ясно и безоблачно+23°C79 %752 мм0.1 м/с3 %
    09:00Ясно и безоблачно+30°C51 %753 мм1.8 м/с2 %
    12:00Ясно и безоблачно+35°C34 %751 мм2.3 м/с2 %
    15:00Небольшая облачность+35°C38 %749 мм3.6 м/с6 %
    18:00Небольшая облачность+30°C66 %750 мм3.0 м/с3 %
    21:00Небольшая облачность+28°C74 %752 мм1.7 м/с2 %
Мы используем cookies
Соглашаюсь